Time;durP1;ratioP1;P1;durP2;ratioP2;P2;SDS_P1;SDS_P2;PMS_P1;PMS_P2;Temp;Humidity;BMP_temperature;BMP_pressure;BME280_temperature;BME280_humidity;BME280_pressure;Samples;Min_cycle;Max_cycle;Signal;HPM_P1;HPM_P2
2023/10/07 00:02:14;;;;;;;5.60;3.80;;;15.50;99.90;;;;;;5092680;28;20430;-64
2023/10/07 00:04:42;;;;;;;6.20;4.00;;;15.60;99.90;;;;;;5084668;28;20504;-64
2023/10/07 00:07:10;;;;;;;6.60;4.23;;;15.50;99.90;;;;;;5098356;28;20426;-65
2023/10/07 00:09:41;;;;;;;4.97;3.80;;;15.50;99.90;;;;;;5103755;28;20426;-64
2023/10/07 00:12:13;;;;;;;5.03;3.97;;;15.50;99.90;;;;;;5096109;28;20423;-64
2023/10/07 00:14:40;;;;;;;5.17;3.30;;;15.50;99.90;;;;;;5100445;28;20453;-64
2023/10/07 00:17:12;;;;;;;6.60;3.90;;;15.50;99.90;;;;;;5098073;28;20432;-64
2023/10/07 00:19:39;;;;;;;6.63;5.10;;;15.40;99.90;;;;;;5101293;28;20498;-64
2023/10/07 00:22:08;;;;;;;7.93;4.50;;;15.40;99.90;;;;;;5095113;28;20418;-64
2023/10/07 00:24:43;;;;;;;8.03;3.87;;;15.40;99.90;;;;;;5101316;28;20430;-64
2023/10/07 00:27:25;;;;;;;7.07;3.73;;;15.30;99.90;;;;;;5101802;28;20425;-64
2023/10/07 00:29:54;;;;;;;5.90;3.70;;;15.30;99.90;;;;;;5099862;28;20422;-64
2023/10/07 00:32:33;;;;;;;6.10;3.90;;;15.30;99.90;;;;;;5100955;28;20426;-64
2023/10/07 00:35:01;;;;;;;5.40;3.90;;;15.30;99.90;;;;;;5099529;28;20473;-64
2023/10/07 00:37:33;;;;;;;6.90;4.03;;;15.30;99.90;;;;;;5104099;28;20441;-64
2023/10/07 00:40:00;;;;;;;6.93;3.77;;;15.20;99.90;;;;;;5096413;28;20425;-64
2023/10/07 00:42:28;;;;;;;7.30;3.83;;;15.30;99.90;;;;;;5095055;28;20484;-64
2023/10/07 00:44:55;;;;;;;4.97;3.83;;;15.30;99.90;;;;;;5095865;28;20436;-64
2023/10/07 00:47:21;;;;;;;6.50;4.33;;;15.20;99.90;;;;;;5095259;28;20457;-64
2023/10/07 00:55:22;;;;;;;4.53;3.30;;;15.00;99.90;;;;;;5078493;28;21370;-64
2023/10/07 00:58:13;;;;;;;6.13;3.87;;;15.00;99.90;;;;;;5096365;28;21222;-64
2023/10/07 01:03:32;;;;;;;11.20;4.47;;;15.00;99.90;;;;;;5096047;28;21252;-64
2023/10/07 01:08:32;;;;;;;6.77;4.03;;;15.00;99.90;;;;;;5093264;28;20426;-64
2023/10/07 01:11:11;;;;;;;6.73;3.93;;;15.10;99.90;;;;;;5098960;28;20449;-64
2023/10/07 01:13:44;;;;;;;4.83;3.37;;;15.10;99.90;;;;;;5103538;28;20424;-64
2023/10/07 01:16:13;;;;;;;4.70;3.60;;;15.00;99.90;;;;;;5103945;28;20430;-64
2023/10/07 01:18:39;;;;;;;7.77;4.63;;;15.00;99.90;;;;;;5104317;28;20500;-64
2023/10/07 01:21:14;;;;;;;4.90;3.80;;;15.10;99.90;;;;;;5103735;28;20417;-64
2023/10/07 01:23:44;;;;;;;5.33;3.73;;;15.10;99.90;;;;;;5098090;28;20432;-64
2023/10/07 01:26:21;;;;;;;7.43;4.60;;;15.00;99.90;;;;;;5095797;28;20453;-64
2023/10/07 01:28:49;;;;;;;7.43;4.23;;;15.00;99.90;;;;;;5099341;28;20479;-64
2023/10/07 01:31:18;;;;;;;7.70;4.30;;;14.90;99.90;;;;;;5094856;28;20434;-64
2023/10/07 01:33:47;;;;;;;5.47;4.03;;;14.90;99.90;;;;;;5082532;28;20453;-64
2023/10/07 01:36:20;;;;;;;7.23;4.87;;;15.00;99.90;;;;;;5103215;28;20528;-64
2023/10/07 01:38:52;;;;;;;7.83;4.40;;;15.00;99.90;;;;;;5094597;28;20414;-63
2023/10/07 01:41:24;;;;;;;6.90;4.53;;;15.00;99.90;;;;;;5076126;28;20438;-65
2023/10/07 01:44:00;;;;;;;8.70;4.40;;;15.00;99.90;;;;;;5090736;28;21014;-64
2023/10/07 01:46:32;;;;;;;7.10;4.90;;;15.00;99.90;;;;;;5094544;28;20430;-63
2023/10/07 01:49:04;;;;;;;4.17;3.20;;;15.00;99.90;;;;;;5093007;28;20533;-64
2023/10/07 01:51:30;;;;;;;8.23;5.00;;;15.00;99.90;;;;;;5093656;28;20426;-64
2023/10/07 01:54:08;;;;;;;8.43;4.30;;;15.00;99.90;;;;;;5103503;28;20971;-64
2023/10/07 01:56:34;;;;;;;9.47;4.60;;;15.10;99.90;;;;;;5102470;28;20941;-64
2023/10/07 02:01:42;;;;;;;6.47;4.70;;;15.00;99.90;;;;;;5098779;28;20821;-68
2023/10/07 02:04:18;;;;;;;8.43;4.23;;;15.00;99.90;;;;;;5096843;28;21074;-64
2023/10/07 02:06:54;;;;;;;8.97;4.73;;;15.10;99.90;;;;;;5100182;28;20430;-64
2023/10/07 02:09:27;;;;;;;6.60;4.87;;;15.10;99.90;;;;;;5099631;28;20421;-64
2023/10/07 02:11:54;;;;;;;7.47;5.20;;;15.00;99.90;;;;;;5091816;28;20854;-65
2023/10/07 02:14:24;;;;;;;7.90;4.77;;;15.10;99.90;;;;;;5100474;28;20457;-64
2023/10/07 02:16:53;;;;;;;5.70;4.40;;;15.10;99.90;;;;;;5098687;28;20431;-65
2023/10/07 02:19:27;;;;;;;7.50;4.83;;;15.10;99.90;;;;;;5101391;28;20490;-65
2023/10/07 02:21:59;;;;;;;6.70;6.00;;;15.10;99.90;;;;;;5094711;28;20453;-66
2023/10/07 02:24:29;;;;;;;6.63;4.73;;;15.10;99.90;;;;;;5092687;28;20524;-64
2023/10/07 02:27:25;;;;;;;7.30;5.40;;;15.00;99.90;;;;;;5098298;28;20440;-66
2023/10/07 02:29:52;;;;;;;9.57;6.00;;;15.00;99.90;;;;;;5083342;28;20809;-65
2023/10/07 02:32:17;;;;;;;9.20;4.97;;;15.00;99.90;;;;;;5099280;28;20429;-64
2023/10/07 02:34:55;;;;;;;11.23;5.87;;;15.00;99.90;;;;;;5103524;28;20453;-65
2023/10/07 02:37:25;;;;;;;7.87;6.00;;;15.00;99.90;;;;;;5098726;28;20198;-64
2023/10/07 02:40:02;;;;;;;11.03;6.60;;;15.00;99.90;;;;;;5089078;28;20432;-64
2023/10/07 02:42:28;;;;;;;8.93;5.67;;;15.00;99.90;;;;;;5101602;28;20441;-64
2023/10/07 02:47:47;;;;;;;8.07;6.10;;;15.00;99.90;;;;;;5102928;28;20426;-64
2023/10/07 02:50:13;;;;;;;10.30;6.30;;;15.10;99.90;;;;;;5089537;28;20445;-64
2023/10/07 02:52:39;;;;;;;11.17;6.97;;;15.10;99.90;;;;;;5095771;28;20436;-64
2023/10/07 02:58:01;;;;;;;10.90;6.53;;;15.10;99.90;;;;;;5078391;28;20524;-64
2023/10/07 03:00:29;;;;;;;11.87;6.17;;;15.20;99.90;;;;;;5092436;28;20519;-64
2023/10/07 03:05:45;;;;;;;10.23;6.43;;;15.00;99.90;;;;;;5099819;28;20430;-64
2023/10/07 03:08:19;;;;;;;8.83;6.43;;;15.00;99.90;;;;;;5093797;28;20425;-63
2023/10/07 03:11:03;;;;;;;8.63;6.27;;;15.10;99.90;;;;;;5098168;28;21206;-63
2023/10/07 03:13:30;;;;;;;9.53;7.00;;;15.10;99.90;;;;;;5101677;28;20553;-63
2023/10/07 03:21:35;;;;;;;9.97;6.90;;;15.00;99.90;;;;;;5086675;28;20509;-64
2023/10/07 03:24:07;;;;;;;9.60;6.47;;;15.00;99.90;;;;;;5092123;28;20251;-63
2023/10/07 03:26:34;;;;;;;11.53;6.70;;;15.10;99.90;;;;;;5098774;28;20892;-64
2023/10/07 03:29:04;;;;;;;9.83;7.63;;;15.00;99.90;;;;;;5103671;28;20441;-63
2023/10/07 03:31:47;;;;;;;11.17;8.60;;;15.10;99.90;;;;;;5105437;28;20429;-64
2023/10/07 03:34:14;;;;;;;12.70;7.93;;;15.00;99.90;;;;;;5101392;28;20514;-63
2023/10/07 03:37:14;;;;;;;13.83;8.77;;;14.90;99.90;;;;;;5106522;28;20858;-63
2023/10/07 03:42:16;;;;;;;10.67;7.83;;;14.90;99.90;;;;;;5102267;28;20444;-63
2023/10/07 03:44:42;;;;;;;11.30;8.43;;;14.90;99.90;;;;;;5105996;28;20425;-63
2023/10/07 03:47:10;;;;;;;14.03;8.90;;;15.00;99.90;;;;;;5105523;28;20191;-63
2023/10/07 03:49:40;;;;;;;11.60;7.70;;;15.00;99.90;;;;;;5105609;28;20195;-64
2023/10/07 03:52:08;;;;;;;10.17;8.00;;;15.00;99.90;;;;;;5105502;28;20439;-63
2023/10/07 03:54:34;;;;;;;9.70;7.60;;;15.00;99.90;;;;;;5105091;28;20469;-64
2023/10/07 03:57:00;;;;;;;11.33;8.40;;;15.10;99.90;;;;;;5105974;28;20417;-64
2023/10/07 03:59:34;;;;;;;10.37;7.90;;;15.10;99.90;;;;;;5104809;28;20432;-63
2023/10/07 04:02:04;;;;;;;12.70;7.90;;;15.10;99.90;;;;;;5105745;28;20468;-64
2023/10/07 04:04:30;;;;;;;14.93;9.40;;;15.10;99.90;;;;;;5104726;28;20433;-63
2023/10/07 04:07:00;;;;;;;10.07;7.93;;;15.10;99.90;;;;;;5082237;28;20438;-65
2023/10/07 04:09:32;;;;;;;12.60;9.17;;;15.10;99.90;;;;;;5104051;28;20994;-65
2023/10/07 04:11:59;;;;;;;10.67;8.40;;;15.10;99.90;;;;;;5105532;28;20517;-64
2023/10/07 04:14:28;;;;;;;10.53;8.37;;;15.10;99.90;;;;;;5103600;28;20493;-64
2023/10/07 04:16:58;;;;;;;8.73;7.70;;;15.10;99.90;;;;;;5105332;28;20454;-64
2023/10/07 04:21:51;;;;;;;13.80;9.80;;;15.20;99.90;;;;;;5105528;28;20429;-64
2023/10/07 04:24:20;;;;;;;11.53;9.67;;;15.20;99.90;;;;;;5104030;28;20551;-64
2023/10/07 04:27:03;;;;;;;14.93;10.00;;;15.20;99.90;;;;;;5104803;28;20437;-63
2023/10/07 04:29:29;;;;;;;11.23;8.33;;;15.20;99.90;;;;;;5102367;28;20437;-64
2023/10/07 04:31:57;;;;;;;12.67;9.57;;;15.20;99.90;;;;;;5102511;28;20441;-64
2023/10/07 04:34:23;;;;;;;10.73;9.30;;;15.20;99.90;;;;;;5103413;28;20480;-64
2023/10/07 04:39:39;;;;;;;16.33;11.13;;;15.20;99.90;;;;;;5104038;28;20433;-64
2023/10/07 04:42:06;;;;;;;11.60;8.07;;;15.30;99.90;;;;;;5105207;28;20478;-64
2023/10/07 04:47:22;;;;;;;16.20;10.10;;;15.30;99.90;;;;;;5099193;28;20430;-61
2023/10/07 04:52:42;;;;;;;17.37;9.63;;;15.20;99.90;;;;;;5104438;28;20432;-64
2023/10/07 04:55:15;;;;;;;13.53;11.37;;;15.10;99.90;;;;;;5103823;28;20472;-63
2023/10/07 04:57:56;;;;;;;14.67;10.23;;;15.20;99.90;;;;;;5104541;28;20428;-64
2023/10/07 05:03:01;;;;;;;15.10;10.43;;;15.20;99.90;;;;;;5104186;28;20429;-64
2023/10/07 05:05:33;;;;;;;14.10;10.63;;;15.20;99.90;;;;;;5103488;28;20938;-64
2023/10/07 05:08:17;;;;;;;12.17;10.90;;;15.20;99.90;;;;;;5104179;28;20460;-64
2023/10/07 05:11:04;;;;;;;13.23;11.80;;;15.20;99.90;;;;;;5104105;28;20490;-64
2023/10/07 05:13:33;;;;;;;17.20;9.80;;;15.10;99.90;;;;;;5085862;28;20441;-64
2023/10/07 05:15:59;;;;;;;15.17;10.20;;;15.20;99.90;;;;;;5103721;28;20473;-64
2023/10/07 05:18:25;;;;;;;13.87;10.93;;;15.20;99.90;;;;;;5103363;28;20428;-63
2023/10/07 05:20:51;;;;;;;13.60;10.30;;;15.20;99.90;;;;;;5103897;28;20175;-64
2023/10/07 05:23:18;;;;;;;14.60;10.93;;;15.30;99.90;;;;;;5102922;28;20184;-63
2023/10/07 05:25:51;;;;;;;12.67;9.33;;;15.20;99.90;;;;;;5103374;28;20432;-63
2023/10/07 05:28:20;;;;;;;13.33;11.50;;;15.30;99.90;;;;;;5102915;28;20472;-63
2023/10/07 05:30:52;;;;;;;15.53;10.73;;;15.30;99.90;;;;;;5103983;28;20425;-63
2023/10/07 05:33:25;;;;;;;12.93;10.33;;;15.30;99.90;;;;;;5103167;28;20520;-63
2023/10/07 05:35:54;;;;;;;13.57;9.63;;;15.30;99.90;;;;;;5103238;28;20453;-63
2023/10/07 05:38:19;;;;;;;17.97;11.13;;;15.40;99.90;;;;;;5102237;28;20444;-63
2023/10/07 05:40:49;;;;;;;12.80;9.77;;;15.40;99.90;;;;;;5103420;28;20437;-63
2023/10/07 05:43:16;;;;;;;14.30;10.80;;;15.40;99.90;;;;;;5102635;28;20215;-63
2023/10/07 05:45:42;;;;;;;13.17;9.43;;;15.30;99.90;;;;;;5098961;28;20434;-63
2023/10/07 05:48:08;;;;;;;13.13;10.40;;;15.30;99.90;;;;;;5102013;28;20491;-63
2023/10/07 05:50:34;;;;;;;14.70;10.33;;;15.30;99.90;;;;;;5102773;28;20552;-63
2023/10/07 05:53:05;;;;;;;13.93;9.60;;;15.30;99.90;;;;;;5102948;28;20759;-63
2023/10/07 05:55:33;;;;;;;10.20;9.20;;;15.30;99.90;;;;;;5102516;28;20473;-64
2023/10/07 05:58:02;;;;;;;11.30;9.50;;;15.30;99.90;;;;;;5102894;28;20428;-63
2023/10/07 06:00:31;;;;;;;14.17;10.03;;;15.30;99.90;;;;;;5102432;28;20452;-64
2023/10/07 06:02:57;;;;;;;12.37;9.73;;;15.40;99.90;;;;;;5102840;28;20487;-63
2023/10/07 06:05:27;;;;;;;11.63;9.43;;;15.40;99.90;;;;;;5102228;28;20444;-64
2023/10/07 06:07:59;;;;;;;14.17;9.60;;;15.40;99.90;;;;;;5103205;28;20441;-64
2023/10/07 06:10:24;;;;;;;11.73;9.70;;;15.40;99.90;;;;;;5102557;28;20432;-63
2023/10/07 06:12:53;;;;;;;10.40;9.40;;;15.40;99.90;;;;;;5102622;28;20430;-63
2023/10/07 06:15:20;;;;;;;12.67;9.47;;;15.40;99.90;;;;;;5101684;28;20301;-64
2023/10/07 06:17:46;;;;;;;11.37;9.20;;;15.40;99.90;;;;;;5103041;28;20472;-64
2023/10/07 06:20:14;;;;;;;12.37;9.43;;;15.40;99.90;;;;;;5102547;28;20430;-64
2023/10/07 06:22:45;;;;;;;13.47;8.60;;;15.50;99.90;;;;;;5102535;28;21040;-63
2023/10/07 06:25:12;;;;;;;13.50;9.53;;;15.40;99.90;;;;;;5095162;28;20460;-63
2023/10/07 06:27:38;;;;;;;14.70;10.00;;;15.40;99.90;;;;;;5102336;28;20545;-63
2023/10/07 06:30:09;;;;;;;10.60;9.10;;;15.40;99.90;;;;;;5101821;28;20437;-63
2023/10/07 06:32:45;;;;;;;11.30;8.77;;;15.50;99.90;;;;;;5084446;28;21306;-64
2023/10/07 06:35:21;;;;;;;9.93;8.73;;;15.50;99.90;;;;;;5083382;28;20488;-64
2023/10/07 06:37:47;;;;;;;15.57;8.57;;;15.50;99.90;;;;;;5102648;28;20439;-64
2023/10/07 06:43:14;;;;;;;11.20;9.27;;;15.60;99.90;;;;;;5088318;28;20199;-63
2023/10/07 06:45:44;;;;;;;12.97;8.70;;;15.60;99.90;;;;;;5101975;28;20468;-64
2023/10/07 06:48:11;;;;;;;13.57;9.00;;;15.60;99.90;;;;;;5101979;28;20481;-63
2023/10/07 06:50:41;;;;;;;10.30;9.33;;;15.60;99.90;;;;;;5101765;28;20442;-64
2023/10/07 06:53:21;;;;;;;11.83;8.87;;;15.60;99.90;;;;;;5101738;28;20425;-64
2023/10/07 06:55:51;;;;;;;11.30;8.37;;;15.60;99.90;;;;;;5102218;28;20513;-64
2023/10/07 06:58:22;;;;;;;13.50;9.20;;;15.60;99.90;;;;;;5098057;28;20468;-64
2023/10/07 07:00:50;;;;;;;11.23;8.20;;;15.60;99.90;;;;;;5105952;28;20429;-63
2023/10/07 07:03:19;;;;;;;11.47;9.00;;;15.60;99.90;;;;;;5106142;28;20512;-64
2023/10/07 07:05:45;;;;;;;8.00;6.80;;;15.70;99.90;;;;;;5101322;28;20422;-64
2023/10/07 07:08:14;;;;;;;10.10;7.90;;;15.70;99.90;;;;;;5105663;28;20798;-64
2023/10/07 07:10:41;;;;;;;9.53;8.47;;;15.70;99.90;;;;;;5106514;28;20444;-64
2023/10/07 07:13:15;;;;;;;12.07;8.70;;;15.70;99.90;;;;;;5105553;28;20937;-63
2023/10/07 07:15:47;;;;;;;14.50;8.60;;;15.70;99.90;;;;;;5105675;28;20469;-63
2023/10/07 07:20:49;;;;;;;10.73;8.60;;;15.60;99.90;;;;;;5105226;28;20430;-64
2023/10/07 07:23:21;;;;;;;10.50;8.20;;;15.60;99.90;;;;;;5105256;28;20183;-64
2023/10/07 07:28:46;;;;;;;10.83;7.90;;;15.60;99.90;;;;;;5066342;28;20551;-64
2023/10/07 07:31:18;;;;;;;11.33;7.30;;;15.60;99.90;;;;;;5101149;28;20446;-63
2023/10/07 07:33:48;;;;;;;10.40;7.43;;;15.70;99.90;;;;;;5105388;28;20505;-63
2023/10/07 07:39:06;;;;;;;9.27;7.70;;;15.80;99.90;;;;;;5105162;28;20429;-64
2023/10/07 07:41:35;;;;;;;9.83;7.70;;;15.90;99.90;;;;;;5104978;28;20440;-64
2023/10/07 07:44:01;;;;;;;10.20;7.37;;;15.80;99.90;;;;;;5105108;28;20541;-63
2023/10/07 07:46:31;;;;;;;9.70;6.30;;;15.90;99.90;;;;;;5104766;28;20435;-65
2023/10/07 07:49:08;;;;;;;8.17;6.93;;;15.90;99.90;;;;;;5105037;28;21010;-63
2023/10/07 07:51:37;;;;;;;7.93;6.60;;;16.00;99.90;;;;;;5104856;28;20468;-63
2023/10/07 07:54:07;;;;;;;8.20;7.40;;;16.00;99.90;;;;;;5104413;28;20435;-64
2023/10/07 07:56:34;;;;;;;6.90;6.10;;;16.00;99.90;;;;;;5104592;28;20961;-64
2023/10/07 07:59:01;;;;;;;8.43;6.57;;;16.10;99.90;;;;;;5104583;28;21081;-63
2023/10/07 08:01:29;;;;;;;7.53;5.77;;;16.10;99.90;;;;;;5104381;28;20472;-64
2023/10/07 08:03:59;;;;;;;7.80;6.23;;;16.20;99.90;;;;;;5105346;28;21082;-63
2023/10/07 08:06:25;;;;;;;12.00;6.50;;;16.30;99.90;;;;;;5104433;28;20490;-63
2023/10/07 08:08:53;;;;;;;7.20;6.13;;;16.30;99.90;;;;;;5105875;28;20432;-64
2023/10/07 08:11:19;;;;;;;10.27;6.00;;;16.50;99.90;;;;;;5100219;28;20946;-63
2023/10/07 08:13:46;;;;;;;10.70;6.40;;;16.50;99.90;;;;;;5105321;28;20943;-64
2023/10/07 08:16:17;;;;;;;8.40;6.20;;;16.50;99.90;;;;;;5104718;28;20488;-64
2023/10/07 08:18:44;;;;;;;7.80;5.13;;;16.50;99.90;;;;;;5105052;28;20436;-63
2023/10/07 08:21:13;;;;;;;11.23;5.97;;;16.50;99.90;;;;;;5104001;28;20760;-64
2023/10/07 08:23:51;;;;;;;9.13;5.87;;;16.60;99.90;;;;;;5104495;28;20770;-63
2023/10/07 08:26:23;;;;;;;11.03;5.40;;;16.60;99.90;;;;;;5103657;28;20443;-64
2023/10/07 08:31:37;;;;;;;5.83;4.97;;;16.70;99.90;;;;;;5105685;28;20438;-63
2023/10/07 08:36:36;;;;;;;6.70;5.20;;;17.00;99.90;;;;;;5104252;28;21024;-64
2023/10/07 08:39:08;;;;;;;6.67;5.00;;;17.10;99.90;;;;;;5085417;28;20440;-64
2023/10/07 08:41:35;;;;;;;5.67;4.30;;;17.20;99.90;;;;;;5104218;28;20544;-64
2023/10/07 08:44:15;;;;;;;6.97;4.50;;;17.30;99.90;;;;;;5103400;28;21135;-64
2023/10/07 08:46:48;;;;;;;6.63;4.97;;;17.50;99.90;;;;;;5103230;28;20927;-64
2023/10/07 08:49:24;;;;;;;8.97;5.10;;;17.50;99.90;;;;;;5103626;28;20441;-64
2023/10/07 08:51:52;;;;;;;7.80;4.47;;;17.40;99.90;;;;;;5096549;28;20494;-64
2023/10/07 08:54:18;;;;;;;9.50;4.70;;;17.20;99.90;;;;;;5103247;28;20476;-63
2023/10/07 08:56:54;;;;;;;7.97;4.87;;;17.20;99.90;;;;;;5103588;28;21241;-64
2023/10/07 08:59:30;;;;;;;7.80;4.27;;;17.10;99.90;;;;;;5087058;28;20931;-63
2023/10/07 09:02:00;;;;;;;7.40;5.07;;;17.10;99.90;;;;;;5102900;28;20647;-63
2023/10/07 09:04:32;;;;;;;7.80;4.67;;;17.00;99.90;;;;;;5102816;28;20429;-64
2023/10/07 09:07:08;;;;;;;8.23;5.60;;;16.90;99.90;;;;;;5103129;28;20436;-64
2023/10/07 09:09:38;;;;;;;8.73;4.47;;;16.90;99.90;;;;;;5103271;28;20870;-64
2023/10/07 09:12:15;;;;;;;6.40;3.97;;;16.90;99.90;;;;;;5104010;28;20430;-64
2023/10/07 09:14:57;;;;;;;5.70;4.50;;;16.90;99.90;;;;;;5103847;28;20892;-63
2023/10/07 09:17:24;;;;;;;7.37;4.70;;;16.90;99.90;;;;;;5103103;28;20444;-64
2023/10/07 09:19:55;;;;;;;6.97;4.97;;;16.90;99.90;;;;;;5103458;28;20920;-63
2023/10/07 09:22:45;;;;;;;6.83;4.20;;;17.00;99.90;;;;;;5103237;28;20482;-63
2023/10/07 09:25:19;;;;;;;6.40;4.50;;;17.00;99.90;;;;;;5102240;28;20843;-64
2023/10/07 09:27:56;;;;;;;7.40;4.37;;;17.30;99.90;;;;;;5103070;28;20436;-63
2023/10/07 09:33:13;;;;;;;6.83;5.30;;;17.70;99.90;;;;;;5104163;28;20426;-63
2023/10/07 09:35:47;;;;;;;7.83;4.20;;;18.00;99.90;;;;;;5102816;28;20465;-63
2023/10/07 09:38:33;;;;;;;5.37;4.37;;;18.30;99.90;;;;;;5103162;28;20440;-63
2023/10/07 09:41:12;;;;;;;;;;;;;;;;;;;;;
2023/10/07 09:43:43;;;;;;;8.93;5.03;;;18.80;99.90;;;;;;5103355;28;20430;-64
2023/10/07 09:46:10;;;;;;;5.93;3.87;;;18.90;99.90;;;;;;5103663;28;20458;-64
2023/10/07 09:48:41;;;;;;;5.10;3.23;;;19.10;99.90;;;;;;5103177;28;20614;-63
2023/10/07 09:51:25;;;;;;;8.40;3.93;;;19.30;99.90;;;;;;5103299;28;20432;-63
2023/10/07 09:53:51;;;;;;;6.00;3.80;;;19.50;99.90;;;;;;5103666;28;20436;-63
2023/10/07 09:56:32;;;;;;;5.97;3.80;;;19.60;99.90;;;;;;5104501;28;20425;-63
2023/10/07 09:59:22;;;;;;;5.67;3.80;;;19.80;99.90;;;;;;5098171;28;20186;-65
2023/10/07 10:02:43;;;;;;;5.43;3.70;;;19.90;99.90;;;;;;5095943;28;20430;-63
2023/10/07 10:05:26;;;;;;;5.50;3.70;;;20.00;99.90;;;;;;5000540;28;21343;-65
2023/10/07 10:08:19;;;;;;;5.40;3.80;;;20.10;99.90;;;;;;5000748;28;20461;-64
2023/10/07 10:10:49;;;;;;;4.50;3.40;;;20.10;99.90;;;;;;5090933;28;20430;-63
2023/10/07 10:16:44;;;;;;;6.53;3.63;;;20.30;99.90;;;;;;5101245;28;20464;-64
2023/10/07 10:19:29;;;;;;;9.47;3.87;;;20.50;99.90;;;;;;5102701;28;20951;-64
2023/10/07 10:22:06;;;;;;;5.93;3.50;;;20.50;99.90;;;;;;5096333;28;20433;-64
2023/10/07 10:24:41;;;;;;;5.10;2.93;;;20.50;99.90;;;;;;5102401;28;20441;-64
2023/10/07 10:27:11;;;;;;;6.37;3.63;;;20.60;99.90;;;;;;5102084;28;20464;-64
2023/10/07 10:29:55;;;;;;;4.10;3.33;;;20.50;99.90;;;;;;5101780;28;20783;-65
2023/10/07 10:32:36;;;;;;;9.60;3.13;;;20.60;99.90;;;;;;5102470;28;21229;-64
2023/10/07 10:35:11;;;;;;;5.80;3.70;;;20.60;99.90;;;;;;5100732;28;20461;-64
2023/10/07 10:37:37;;;;;;;7.30;3.60;;;20.60;99.90;;;;;;5102532;28;20526;-64
2023/10/07 10:40:14;;;;;;;4.40;3.00;;;20.50;99.90;;;;;;5101896;28;20843;-64
2023/10/07 10:42:47;;;;;;;5.77;3.30;;;20.40;99.90;;;;;;5102286;28;20240;-64
2023/10/07 10:45:19;;;;;;;5.67;3.20;;;20.40;99.90;;;;;;5102371;28;20421;-64
2023/10/07 10:47:50;;;;;;;5.37;3.30;;;20.30;99.90;;;;;;5095121;28;20437;-63
2023/10/07 10:50:19;;;;;;;6.77;3.07;;;20.40;99.90;;;;;;5099178;28;20437;-64
2023/10/07 10:52:48;;;;;;;4.17;3.33;;;20.30;99.90;;;;;;5101861;28;20429;-64
2023/10/07 10:55:17;;;;;;;4.53;3.20;;;20.40;99.90;;;;;;5102255;28;20525;-64
2023/10/07 10:57:44;;;;;;;6.97;3.17;;;20.40;99.90;;;;;;5101983;28;20425;-64
2023/10/07 11:00:19;;;;;;;4.73;3.03;;;20.40;99.90;;;;;;5102281;28;20457;-64
2023/10/07 11:02:54;;;;;;;5.20;3.23;;;20.40;99.90;;;;;;5102012;28;20433;-64
2023/10/07 11:05:21;;;;;;;5.07;3.40;;;20.30;99.90;;;;;;5101652;28;20528;-64
2023/10/07 11:07:49;;;;;;;3.37;2.90;;;20.30;99.90;;;;;;5101518;28;20483;-64
2023/10/07 11:10:20;;;;;;;9.07;3.13;;;20.40;99.90;;;;;;5101904;28;20464;-64
2023/10/07 11:12:52;;;;;;;6.07;2.90;;;20.40;99.90;;;;;;5100174;28;21005;-64
2023/10/07 11:15:24;;;;;;;3.93;2.73;;;20.50;99.90;;;;;;5101737;28;20477;-64
2023/10/07 11:18:14;;;;;;;4.33;2.70;;;20.60;99.90;;;;;;5093963;28;20434;-63
2023/10/07 11:20:40;;;;;;;7.20;2.50;;;20.70;99.90;;;;;;5101767;28;20429;-64
2023/10/07 11:23:08;;;;;;;4.10;2.80;;;20.80;99.90;;;;;;5101843;28;21119;-64
2023/10/07 11:25:35;;;;;;;3.43;2.60;;;20.90;99.90;;;;;;5100870;28;20430;-64
2023/10/07 11:28:09;;;;;;;7.17;3.20;;;20.90;99.90;;;;;;5101041;28;20450;-64
2023/10/07 11:30:47;;;;;;;4.83;2.90;;;20.90;99.90;;;;;;5102507;28;20430;-64
2023/10/07 11:33:16;;;;;;;4.77;3.03;;;20.80;99.90;;;;;;5101879;28;20437;-64
2023/10/07 11:35:42;;;;;;;3.13;2.53;;;20.80;99.90;;;;;;5100536;28;20457;-64
2023/10/07 11:38:11;;;;;;;6.60;3.30;;;20.60;99.90;;;;;;5102317;28;20465;-64
2023/10/07 11:40:37;;;;;;;3.80;2.63;;;20.60;99.90;;;;;;5101141;28;21007;-64
2023/10/07 11:43:09;;;;;;;5.60;2.80;;;20.70;99.90;;;;;;5101844;28;20881;-64
2023/10/07 11:45:39;;;;;;;6.63;3.03;;;20.70;99.90;;;;;;5100994;28;20427;-64
2023/10/07 11:48:08;;;;;;;6.20;3.17;;;20.80;99.90;;;;;;5105202;28;20516;-64
2023/10/07 11:50:35;;;;;;;6.53;3.17;;;20.90;99.90;;;;;;5104523;28;20434;-64
2023/10/07 11:53:07;;;;;;;7.40;2.77;;;20.90;99.90;;;;;;5105126;28;20422;-64
2023/10/07 11:55:33;;;;;;;3.80;2.97;;;20.80;99.90;;;;;;5086567;28;20473;-64
2023/10/07 11:58:00;;;;;;;7.07;3.40;;;20.90;99.90;;;;;;5104705;28;20470;-64
2023/10/07 12:00:34;;;;;;;5.13;3.30;;;20.80;99.90;;;;;;5105241;28;20486;-64
2023/10/07 12:03:07;;;;;;;4.50;2.77;;;20.70;99.90;;;;;;5104673;28;20421;-64
2023/10/07 12:05:35;;;;;;;4.00;2.70;;;20.80;99.90;;;;;;5104815;28;20472;-63
2023/10/07 12:08:01;;;;;;;6.37;3.20;;;20.80;99.90;;;;;;5098814;28;20894;-64
2023/10/07 12:10:36;;;;;;;4.30;3.00;;;20.80;99.90;;;;;;5086568;28;20430;-64
2023/10/07 12:13:03;;;;;;;7.50;2.87;;;20.90;99.90;;;;;;5104976;28;20870;-65
2023/10/07 12:15:29;;;;;;;5.17;2.90;;;21.00;99.90;;;;;;5104137;28;21069;-64
2023/10/07 12:17:55;;;;;;;5.50;3.13;;;21.10;99.90;;;;;;5103769;28;20432;-64
2023/10/07 12:20:22;;;;;;;3.97;2.80;;;21.30;99.90;;;;;;5103957;28;21008;-64
2023/10/07 12:22:48;;;;;;;4.83;3.00;;;21.50;99.90;;;;;;5104084;28;20432;-64
2023/10/07 12:25:16;;;;;;;3.20;2.90;;;21.60;99.90;;;;;;5086880;28;20434;-64
2023/10/07 12:27:47;;;;;;;4.43;2.67;;;21.60;99.90;;;;;;5103861;28;20495;-64
2023/10/07 12:30:14;;;;;;;7.70;3.10;;;21.60;99.90;;;;;;5086591;28;20522;-64
2023/10/07 12:32:43;;;;;;;4.60;2.27;;;21.60;99.90;;;;;;5104689;28;20436;-64
2023/10/07 12:35:10;;;;;;;5.40;2.63;;;21.70;99.90;;;;;;5104175;28;20468;-64
2023/10/07 12:37:39;;;;;;;3.53;2.67;;;21.70;99.90;;;;;;5104600;28;20466;-64
2023/10/07 12:40:10;;;;;;;4.93;2.80;;;21.80;99.90;;;;;;5104238;28;20429;-64
2023/10/07 12:42:39;;;;;;;7.23;2.63;;;21.80;99.90;;;;;;5103998;28;20422;-64
2023/10/07 12:45:05;;;;;;;4.33;3.23;;;21.80;99.90;;;;;;5103571;28;20439;-64
2023/10/07 12:47:35;;;;;;;4.10;2.80;;;22.00;99.90;;;;;;5103340;28;20430;-64
2023/10/07 12:52:45;;;;;;;4.60;2.87;;;21.90;99.90;;;;;;5103733;28;20457;-64
2023/10/07 12:55:12;;;;;;;5.30;3.13;;;22.00;99.90;;;;;;5104555;28;20461;-64
2023/10/07 12:57:40;;;;;;;5.80;3.33;;;21.90;99.90;;;;;;5102959;28;20445;-64
2023/10/07 13:00:18;;;;;;;4.37;2.90;;;21.90;99.90;;;;;;5103739;28;20430;-64
2023/10/07 13:02:49;;;;;;;4.10;2.80;;;21.80;99.90;;;;;;5099560;28;20448;-64
2023/10/07 13:05:18;;;;;;;5.63;3.23;;;21.90;99.90;;;;;;5103607;28;20430;-64
2023/10/07 13:07:45;;;;;;;5.50;3.30;;;21.90;99.90;;;;;;5103680;28;20429;-63
2023/10/07 13:10:11;;;;;;;8.67;3.80;;;22.00;99.90;;;;;;5104111;28;20580;-64
2023/10/07 13:12:37;;;;;;;5.83;2.90;;;22.10;99.90;;;;;;5102437;28;20932;-64
2023/10/07 13:15:14;;;;;;;6.93;3.30;;;22.10;99.90;;;;;;5103789;28;20551;-63
2023/10/07 13:17:41;;;;;;;5.30;3.43;;;22.20;99.90;;;;;;5103203;28;20425;-64
2023/10/07 13:20:07;;;;;;;6.33;3.30;;;22.10;99.90;;;;;;5103785;28;20473;-64
2023/10/07 13:22:33;;;;;;;4.80;3.40;;;22.10;99.90;;;;;;5102895;28;20449;-64
2023/10/07 13:24:59;;;;;;;5.47;2.93;;;22.10;99.90;;;;;;5102609;28;20437;-64
2023/10/07 13:27:26;;;;;;;5.50;3.27;;;22.10;99.90;;;;;;5102327;28;20434;-64
2023/10/07 13:29:52;;;;;;;5.13;3.40;;;22.10;99.90;;;;;;5103188;28;21276;-65
2023/10/07 13:32:18;;;;;;;6.67;3.70;;;22.10;99.90;;;;;;5103410;28;20923;-64
2023/10/07 13:34:43;;;;;;;5.17;3.33;;;22.00;99.90;;;;;;5083970;28;20518;-64
2023/10/07 13:37:11;;;;;;;4.73;3.60;;;22.00;99.90;;;;;;5099473;28;20184;-64
2023/10/07 13:39:40;;;;;;;4.87;3.07;;;21.90;99.90;;;;;;5103015;28;20611;-63
2023/10/07 13:42:09;;;;;;;6.03;3.87;;;21.90;99.90;;;;;;5099105;28;20441;-64
2023/10/07 13:44:35;;;;;;;3.60;2.97;;;21.80;99.90;;;;;;5102672;28;20447;-64
2023/10/07 13:47:01;;;;;;;4.60;3.10;;;21.80;99.90;;;;;;5102190;28;20422;-64
2023/10/07 13:49:27;;;;;;;5.57;3.07;;;21.80;99.90;;;;;;5084790;28;20448;-64
2023/10/07 13:51:56;;;;;;;3.90;3.27;;;21.70;99.90;;;;;;5101938;28;20226;-64
2023/10/07 13:54:26;;;;;;;8.27;3.70;;;21.80;99.90;;;;;;5103273;28;20469;-64
2023/10/07 13:56:55;;;;;;;4.97;3.63;;;21.80;99.90;;;;;;5102213;28;20548;-64
2023/10/07 13:59:24;;;;;;;5.23;3.10;;;21.80;99.90;;;;;;5102228;28;20445;-64
2023/10/07 14:01:55;;;;;;;3.60;3.00;;;21.80;99.90;;;;;;5102173;28;20430;-64
2023/10/07 14:04:25;;;;;;;9.07;3.80;;;21.80;99.90;;;;;;5102827;28;20440;-64
2023/10/07 14:06:54;;;;;;;4.87;3.07;;;21.80;99.90;;;;;;5102308;28;20486;-64
2023/10/07 14:09:24;;;;;;;4.63;3.10;;;21.80;99.90;;;;;;5101056;28;20448;-64
2023/10/07 14:11:51;;;;;;;8.03;4.10;;;21.80;99.90;;;;;;5102829;28;20485;-64